Time;durP1;ratioP1;P1;durP2;ratioP2;P2;SDS_P1;SDS_P2;PMS_P1;PMS_P2;Temp;Humidity;BMP_temperature;BMP_pressure;BME280_temperature;BME280_humidity;BME280_pressure;Samples;Min_cycle;Max_cycle;Signal;HPM_P1;HPM_P2
2022/08/17 00:00:59;;;;;;;8.07;6.35;;;20.50;99.90;;;;;;5011574;28;20444;-73
2022/08/17 00:03:39;;;;;;;11.10;6.35;;;20.50;99.90;;;;;;5012290;28;20437;-74
2022/08/17 00:06:11;;;;;;;13.75;6.38;;;20.50;99.90;;;;;;5027319;28;20080;-73
2022/08/17 00:08:52;;;;;;;11.23;6.25;;;20.50;99.90;;;;;;5026933;28;20041;-73
2022/08/17 00:11:29;;;;;;;10.40;6.10;;;20.50;99.90;;;;;;5027565;28;20045;-73
2022/08/17 00:14:07;;;;;;;10.23;5.75;;;20.40;99.90;;;;;;5027089;28;20044;-73
2022/08/17 00:16:34;;;;;;;;;;;20.30;99.90;;;;;;4995384;28;20030;-74
2022/08/17 00:19:04;;;;;;;11.50;6.65;;;20.30;99.90;;;;;;5011344;28;19967;-74
2022/08/17 00:21:30;;;;;;;8.07;6.22;;;20.20;99.90;;;;;;5011115;28;20033;-73
2022/08/17 00:23:56;;;;;;;11.60;6.60;;;20.20;99.90;;;;;;5027315;28;20069;-73
2022/08/17 00:26:23;;;;;;;8.77;6.33;;;20.20;99.90;;;;;;5010965;28;20080;-73
2022/08/17 00:28:49;;;;;;;8.13;6.53;;;20.20;99.90;;;;;;5027429;28;20406;-73
2022/08/17 00:31:15;;;;;;;10.40;5.70;;;20.10;99.90;;;;;;5012689;28;20033;-73
2022/08/17 00:33:42;;;;;;;9.37;6.63;;;20.10;99.90;;;;;;5011882;28;20030;-73
2022/08/17 00:36:09;;;;;;;10.35;6.38;;;20.00;99.90;;;;;;5010267;28;20041;-73
2022/08/17 00:38:35;;;;;;;;;;;20.00;99.90;;;;;;5027813;28;20071;-73
2022/08/17 00:41:08;;;;;;;9.68;6.40;;;20.00;99.90;;;;;;5012106;28;20028;-74
2022/08/17 00:43:42;;;;;;;7.72;5.88;;;19.90;99.90;;;;;;5026638;28;20033;-74
2022/08/17 00:46:30;;;;;;;9.48;6.15;;;20.00;99.90;;;;;;5027130;28;20490;-74
2022/08/17 00:48:56;;;;;;;9.07;7.03;;;20.00;99.90;;;;;;5025378;28;20040;-74
2022/08/17 00:51:55;;;;;;;11.63;6.25;;;20.00;99.90;;;;;;5027144;28;20040;-74
2022/08/17 00:54:33;;;;;;;8.50;6.05;;;20.00;99.90;;;;;;5023449;28;20105;-73
2022/08/17 00:57:14;;;;;;;9.23;6.80;;;19.90;99.90;;;;;;5032474;28;20042;-73
2022/08/17 00:59:52;;;;;;;11.45;6.45;;;19.90;99.90;;;;;;5031082;28;20053;-73
2022/08/17 01:02:18;;;;;;;9.95;6.57;;;19.90;99.90;;;;;;5022467;28;20481;-74
2022/08/17 01:04:45;;;;;;;;;;;19.80;99.90;;;;;;5017071;28;20083;-73
2022/08/17 01:07:11;;;;;;;9.95;6.20;;;19.80;99.90;;;;;;5017490;28;19917;-73
2022/08/17 01:09:37;;;;;;;9.55;6.50;;;19.70;99.90;;;;;;5015893;28;20516;-73
2022/08/17 01:12:07;;;;;;;10.55;6.45;;;19.70;99.90;;;;;;4994382;28;20033;-73
2022/08/17 01:14:33;;;;;;;9.85;6.50;;;19.60;99.90;;;;;;4983927;28;20025;-73
2022/08/17 01:16:59;;;;;;;13.07;6.07;;;19.60;99.90;;;;;;5021109;28;20033;-73
2022/08/17 01:19:31;;;;;;;12.33;6.90;;;19.60;99.90;;;;;;5021269;28;20025;-72
2022/08/17 01:22:09;;;;;;;8.70;6.30;;;19.60;99.90;;;;;;4991060;28;20394;-73
2022/08/17 01:24:41;;;;;;;10.77;6.20;;;19.60;99.90;;;;;;5006564;28;20049;-73
2022/08/17 01:27:07;;;;;;;8.50;6.07;;;19.60;99.90;;;;;;5006097;28;20524;-73
2022/08/17 01:29:33;;;;;;;10.73;6.30;;;19.60;99.90;;;;;;5007272;28;20057;-73
2022/08/17 01:32:01;;;;;;;8.60;6.43;;;19.60;99.90;;;;;;5006910;28;20490;-73
2022/08/17 01:34:26;;;;;;;10.20;6.50;;;19.50;99.90;;;;;;5006356;28;20030;-73
2022/08/17 01:36:52;;;;;;;10.20;6.67;;;19.50;99.90;;;;;;5009102;28;20104;-73
2022/08/17 01:39:30;;;;;;;8.90;6.47;;;19.50;99.90;;;;;;5011579;28;20109;-73
2022/08/17 01:42:38;;;;;;;7.70;6.03;;;19.40;99.90;;;;;;5011491;28;20200;-73
2022/08/17 01:45:13;;;;;;;8.75;6.60;;;19.40;99.90;;;;;;4996948;28;20034;-73
2022/08/17 01:47:40;;;;;;;10.80;7.10;;;19.30;99.90;;;;;;4994416;28;20029;-73
2022/08/17 01:50:11;;;;;;;;;;;19.30;99.90;;;;;;5015500;28;20026;-73
2022/08/17 01:52:37;;;;;;;8.07;6.13;;;19.30;99.90;;;;;;4997781;28;19910;-73
2022/08/17 01:55:04;;;;;;;13.47;7.47;;;19.20;99.90;;;;;;5029444;28;20076;-73
2022/08/17 01:57:29;;;;;;;7.90;5.80;;;19.20;99.90;;;;;;5013851;28;20045;-75
2022/08/17 01:59:55;;;;;;;7.87;6.40;;;19.20;99.90;;;;;;5015149;28;20038;-73
2022/08/17 02:02:22;;;;;;;8.60;7.00;;;19.20;99.90;;;;;;5014960;28;20117;-73
2022/08/17 02:04:47;;;;;;;8.35;6.32;;;19.20;99.90;;;;;;5014470;28;20033;-73
2022/08/17 02:07:13;;;;;;;8.23;6.83;;;19.20;99.90;;;;;;5014895;28;20034;-74
2022/08/17 02:09:39;;;;;;;9.47;6.70;;;19.10;99.90;;;;;;5015086;28;20053;-74
2022/08/17 02:12:06;;;;;;;7.35;6.45;;;19.10;99.90;;;;;;5015050;28;20084;-75
2022/08/17 02:14:32;;;;;;;11.10;6.30;;;19.00;99.90;;;;;;5014915;28;20037;-73
2022/08/17 02:16:57;;;;;;;9.23;7.00;;;19.00;99.90;;;;;;5030278;28;20109;-73
2022/08/17 02:19:23;;;;;;;12.40;6.73;;;19.00;99.90;;;;;;5015774;28;20030;-77
2022/08/17 02:21:51;;;;;;;13.53;7.70;;;18.90;99.90;;;;;;5013789;28;20037;-73
2022/08/17 02:24:27;;;;;;;9.45;7.20;;;18.90;99.90;;;;;;5029547;28;20544;-74
2022/08/17 02:26:53;;;;;;;8.77;6.57;;;18.90;99.90;;;;;;5028873;28;20030;-73
2022/08/17 02:29:19;;;;;;;9.37;6.57;;;18.80;99.90;;;;;;5013687;28;20045;-74
2022/08/17 02:31:45;;;;;;;9.03;6.60;;;18.80;99.90;;;;;;5014109;28;20105;-73
2022/08/17 02:34:11;;;;;;;8.33;6.23;;;18.80;99.90;;;;;;5029090;28;20033;-73
2022/08/17 02:36:37;;;;;;;9.50;6.70;;;18.70;99.90;;;;;;5029500;28;20033;-73
2022/08/17 02:39:07;;;;;;;10.03;7.13;;;18.70;99.90;;;;;;5029109;28;20045;-73
2022/08/17 02:41:33;;;;;;;10.90;7.07;;;18.60;99.90;;;;;;5028838;28;20040;-73
2022/08/17 02:43:59;;;;;;;9.80;7.30;;;18.60;99.90;;;;;;5028787;28;20464;-73
2022/08/17 02:46:25;;;;;;;14.17;7.10;;;18.60;99.90;;;;;;5014040;28;20045;-73
2022/08/17 02:48:50;;;;;;;9.65;6.45;;;18.60;99.90;;;;;;5013919;28;20444;-73
2022/08/17 02:51:16;;;;;;;8.73;7.23;;;18.60;99.90;;;;;;5029094;28;20040;-73
2022/08/17 02:53:42;;;;;;;11.80;8.57;;;18.60;99.90;;;;;;5013612;28;20030;-73
2022/08/17 02:56:08;;;;;;;9.90;7.30;;;18.50;99.90;;;;;;5013031;28;20417;-73
2022/08/17 02:58:34;;;;;;;9.17;7.13;;;18.50;99.90;;;;;;5028452;28;20037;-73
2022/08/17 03:01:00;;;;;;;10.40;7.70;;;18.50;99.90;;;;;;5028586;28;20026;-73
2022/08/17 03:03:25;;;;;;;9.57;7.85;;;18.50;99.90;;;;;;5013553;28;20040;-73
2022/08/17 03:05:52;;;;;;;9.23;7.23;;;18.40;99.90;;;;;;5013914;28;20034;-73
2022/08/17 03:08:18;;;;;;;11.32;7.70;;;18.40;99.90;;;;;;5012359;28;20029;-73
2022/08/17 03:10:44;;;;;;;10.90;9.37;;;18.40;99.90;;;;;;5028998;28;20092;-73
2022/08/17 03:13:11;;;;;;;8.35;7.03;;;18.30;99.90;;;;;;5013334;28;20037;-73
2022/08/17 03:15:38;;;;;;;10.75;7.53;;;18.30;99.90;;;;;;5028607;28;20053;-73
2022/08/17 03:18:05;;;;;;;8.80;7.38;;;18.30;99.90;;;;;;5013389;28;20034;-73
2022/08/17 03:20:35;;;;;;;8.98;7.20;;;18.20;99.90;;;;;;5028798;28;20058;-73
2022/08/17 03:23:00;;;;;;;13.10;8.60;;;18.20;99.90;;;;;;5028066;28;20034;-73
2022/08/17 03:25:33;;;;;;;12.80;7.63;;;18.20;99.90;;;;;;5013272;28;20032;-73
2022/08/17 03:27:58;;;;;;;14.32;7.88;;;18.20;99.90;;;;;;5013001;28;20040;-73
2022/08/17 03:30:25;;;;;;;11.83;8.53;;;18.20;99.90;;;;;;5012030;28;20030;-73
2022/08/17 03:32:53;;;;;;;11.38;8.52;;;18.20;99.90;;;;;;5027964;28;20029;-73
2022/08/17 03:35:25;;;;;;;11.80;7.88;;;18.10;99.90;;;;;;5028092;28;20072;-73
2022/08/17 03:37:51;;;;;;;10.05;8.13;;;18.10;99.90;;;;;;5027172;28;20028;-73
2022/08/17 03:40:17;;;;;;;11.95;7.53;;;18.10;99.90;;;;;;5027788;28;20068;-73
2022/08/17 03:42:43;;;;;;;13.17;8.77;;;18.10;99.90;;;;;;5013352;28;20425;-73
2022/08/17 03:56:40;;;;;;;9.13;7.53;;;18.10;99.90;;;;;;5012877;28;20065;-74
2022/08/17 03:56:43;;;;;;;9.90;7.07;;;18.10;99.90;;;;;;5011242;28;20037;-73
2022/08/17 03:59:18;;;;;;;11.95;7.95;;;18.00;99.90;;;;;;4993084;28;20544;-73
2022/08/17 04:01:45;;;;;;;9.80;7.32;;;18.00;99.90;;;;;;4992273;28;20406;-74
2022/08/17 04:04:11;;;;;;;12.00;7.40;;;18.00;99.90;;;;;;4975495;28;20034;-73
2022/08/17 04:06:37;;;;;;;10.10;7.30;;;18.00;99.90;;;;;;4991792;28;20038;-73
2022/08/17 04:09:03;;;;;;;11.35;7.38;;;18.00;99.90;;;;;;4991332;28;20042;-73
2022/08/17 04:11:29;;;;;;;12.32;7.53;;;17.90;99.90;;;;;;4990862;28;20092;-73
2022/08/17 04:13:55;;;;;;;14.73;8.00;;;17.90;99.90;;;;;;4991234;28;20034;-73
2022/08/17 04:16:23;;;;;;;11.03;7.77;;;17.90;99.90;;;;;;4992686;28;20088;-73
2022/08/17 04:18:49;;;;;;;9.57;7.97;;;17.90;99.90;;;;;;4991618;28;20030;-73
2022/08/17 04:21:15;;;;;;;12.80;7.50;;;17.90;99.90;;;;;;4992642;28;20105;-74
2022/08/17 04:23:41;;;;;;;10.63;7.53;;;17.90;99.90;;;;;;4990893;28;20181;-74
2022/08/17 04:26:06;;;;;;;11.67;7.07;;;18.00;99.90;;;;;;4992496;28;20042;-74
2022/08/17 04:28:32;;;;;;;11.93;7.87;;;18.00;99.90;;;;;;5009565;28;20382;-74
2022/08/17 04:30:58;;;;;;;10.40;7.67;;;18.00;99.90;;;;;;5012166;28;20088;-74
2022/08/17 04:33:25;;;;;;;11.03;8.37;;;18.00;99.90;;;;;;5011821;28;20513;-74
2022/08/17 04:35:54;;;;;;;10.52;7.85;;;18.00;99.90;;;;;;5012005;28;20387;-74
2022/08/17 04:38:24;;;;;;;12.68;8.10;;;18.00;99.90;;;;;;5026589;28;20040;-74
2022/08/17 04:43:35;;;;;;;11.10;7.95;;;18.00;99.90;;;;;;5024568;28;20184;-75
2022/08/17 04:46:04;;;;;;;14.30;8.30;;;18.00;99.90;;;;;;5026972;28;20091;-74
2022/08/17 04:48:40;;;;;;;9.82;7.40;;;18.00;99.90;;;;;;5016365;28;20065;-76
2022/08/17 04:51:12;;;;;;;10.23;7.65;;;18.10;99.90;;;;;;5028061;28;20120;-76
2022/08/17 04:53:43;;;;;;;14.85;8.13;;;18.10;99.90;;;;;;5026583;28;20057;-76
2022/08/17 04:56:09;;;;;;;9.77;8.23;;;18.10;99.90;;;;;;5026189;28;20030;-75
2022/08/17 04:58:35;;;;;;;11.02;8.07;;;18.10;99.90;;;;;;5026564;28;20199;-76
2022/08/17 05:01:00;;;;;;;11.73;7.77;;;18.10;99.90;;;;;;5011547;28;20413;-75
2022/08/17 05:03:27;;;;;;;10.00;7.77;;;18.10;99.90;;;;;;5026325;28;20444;-76
2022/08/17 05:05:52;;;;;;;11.98;8.27;;;18.10;99.90;;;;;;5026486;28;20029;-75
2022/08/17 05:08:18;;;;;;;10.27;7.90;;;18.00;99.90;;;;;;5026616;28;20436;-75
2022/08/17 05:10:44;;;;;;;9.45;7.75;;;18.00;99.90;;;;;;5026349;28;20061;-76
2022/08/17 05:13:16;;;;;;;11.27;8.33;;;18.00;99.90;;;;;;5011034;28;20469;-76
2022/08/17 05:15:43;;;;;;;10.05;8.32;;;18.10;99.90;;;;;;5026412;28;20037;-76
2022/08/17 05:18:09;;;;;;;11.45;8.23;;;18.10;99.90;;;;;;5026341;28;20508;-76
2022/08/17 05:20:35;;;;;;;10.20;7.70;;;18.10;99.90;;;;;;5026412;28;20117;-76
2022/08/17 05:23:06;;;;;;;10.35;7.75;;;18.20;99.90;;;;;;5013616;28;20109;-76
2022/08/17 05:25:38;;;;;;;13.10;8.32;;;18.20;99.90;;;;;;5029840;28;20030;-76
2022/08/17 05:28:04;;;;;;;10.50;8.23;;;18.30;99.90;;;;;;5029454;28;20036;-76
2022/08/17 05:30:30;;;;;;;11.00;7.90;;;18.30;99.90;;;;;;5029681;28;20107;-76
2022/08/17 05:33:05;;;;;;;12.23;8.33;;;18.30;99.90;;;;;;5029936;28;20035;-75
2022/08/17 05:35:33;;;;;;;13.50;9.35;;;18.30;99.90;;;;;;5015819;28;20124;-78
2022/08/17 05:37:59;;;;;;;11.23;8.80;;;18.30;99.90;;;;;;5030741;28;20846;-77
2022/08/17 05:40:25;;;;;;;11.70;8.35;;;18.30;99.90;;;;;;5015998;28;20077;-80
2022/08/17 05:43:02;;;;;;;12.10;8.80;;;18.40;99.90;;;;;;5033279;28;20434;-80
2022/08/17 05:45:28;;;;;;;10.82;7.95;;;18.40;99.90;;;;;;5014476;28;20106;-72
2022/08/17 05:47:53;;;;;;;14.23;8.73;;;18.40;99.90;;;;;;5014934;28;20122;-72
2022/08/17 05:50:26;;;;;;;17.33;10.00;;;18.50;99.90;;;;;;5014163;28;20113;-72
2022/08/17 05:53:14;;;;;;;12.40;9.82;;;18.50;99.90;;;;;;4997364;28;20033;-71
2022/08/17 05:55:45;;;;;;;;;;;18.60;99.90;;;;;;4997928;28;20030;-70
2022/08/17 05:58:30;;;;;;;10.70;8.07;;;18.70;99.90;;;;;;5013586;28;20423;-70
2022/08/17 06:01:18;;;;;;;15.57;8.82;;;18.70;99.90;;;;;;5014283;28;20034;-71
2022/08/17 06:03:59;;;;;;;14.55;8.40;;;18.80;99.90;;;;;;5014359;28;20560;-70
2022/08/17 06:06:39;;;;;;;12.85;8.75;;;18.90;99.90;;;;;;5028916;28;20201;-71
2022/08/17 06:09:29;;;;;;;12.38;8.88;;;19.00;99.90;;;;;;5029018;28;20030;-71
2022/08/17 06:12:31;;;;;;;14.65;8.27;;;19.10;99.90;;;;;;5027779;28;20105;-71
2022/08/17 06:15:23;;;;;;;13.48;8.80;;;19.10;99.90;;;;;;5025342;28;20509;-71
2022/08/17 06:17:55;;;;;;;16.83;9.20;;;19.20;99.90;;;;;;5026764;28;20041;-71
2022/08/17 06:20:21;;;;;;;12.18;8.95;;;19.30;99.90;;;;;;4996726;28;20037;-71
2022/08/17 06:22:49;;;;;;;11.53;8.50;;;19.40;99.90;;;;;;5029321;28;20022;-71
2022/08/17 06:25:29;;;;;;;13.63;8.68;;;19.50;99.90;;;;;;5029026;28;20034;-71
2022/08/17 06:28:01;;;;;;;11.60;7.50;;;19.50;99.90;;;;;;5029103;28;20510;-70
2022/08/17 06:30:39;;;;;;;9.48;8.15;;;19.60;99.90;;;;;;5027368;28;20032;-71
2022/08/17 06:33:09;;;;;;;11.77;8.10;;;19.70;99.90;;;;;;5028073;28;20033;-71
2022/08/17 06:35:58;;;;;;;10.65;8.27;;;19.80;99.90;;;;;;5028221;28;20034;-71
2022/08/17 06:39:26;;;;;;;11.52;8.38;;;19.80;99.90;;;;;;5028804;28;20121;-71
2022/08/17 06:42:08;;;;;;;13.30;9.13;;;19.90;99.90;;;;;;5008317;28;20041;-71
2022/08/17 06:44:49;;;;;;;12.38;8.40;;;19.90;99.90;;;;;;5012564;28;20030;-71
2022/08/17 06:47:52;;;;;;;11.35;8.80;;;20.00;99.90;;;;;;5028309;28;20436;-78
2022/08/17 06:50:56;;;;;;;11.77;7.95;;;20.10;99.90;;;;;;5014846;28;20117;-79
2022/08/17 06:53:43;;;;;;;10.75;7.68;;;20.20;99.90;;;;;;5030504;28;20472;-80
2022/08/17 06:56:12;;;;;;;12.77;7.50;;;20.30;99.90;;;;;;5028768;28;20038;-80
2022/08/17 06:58:39;;;;;;;8.40;6.78;;;20.40;99.90;;;;;;5030288;28;20029;-80
2022/08/17 07:01:16;;;;;;;9.65;7.30;;;20.40;99.90;;;;;;5029815;28;20026;-80
2022/08/17 07:04:02;;;;;;;8.38;6.43;;;20.50;99.90;;;;;;5030375;28;20084;-80
2022/08/17 07:08:00;;;;;;;8.90;5.93;;;20.70;99.90;;;;;;5029074;28;20026;-80
2022/08/17 07:09:49;;;;;;;7.53;5.90;;;20.80;99.90;;;;;;5027234;28;20049;-79
2022/08/17 07:12:18;;;;;;;8.63;6.00;;;21.00;99.90;;;;;;5029606;28;20532;-80
2022/08/17 07:14:55;;;;;;;5.82;5.22;;;21.10;99.90;;;;;;5029144;28;20047;-80
2022/08/17 07:17:21;;;;;;;7.50;5.13;;;21.20;99.90;;;;;;5028283;28;20036;-79
2022/08/17 07:19:49;;;;;;;6.80;5.70;;;21.30;99.90;;;;;;5029434;28;20026;-79
2022/08/17 07:22:47;;;;;;;8.63;5.18;;;21.40;99.90;;;;;;5029327;28;20066;-79
2022/08/17 07:25:17;;;;;;;7.37;4.97;;;21.50;99.90;;;;;;5010140;28;20046;-78
2022/08/17 07:27:49;;;;;;;5.57;5.07;;;21.50;99.90;;;;;;5028061;28;20280;-78
2022/08/17 07:30:28;;;;;;;8.65;5.70;;;21.60;99.90;;;;;;4996194;28;20096;-78
2022/08/17 07:33:07;;;;;;;6.20;5.22;;;21.60;99.90;;;;;;5028705;28;20030;-79
2022/08/17 07:35:38;;;;;;;6.22;5.00;;;21.70;99.90;;;;;;5026705;28;20030;-79
2022/08/17 07:38:28;;;;;;;8.48;5.47;;;21.80;99.90;;;;;;5027773;28;20080;-79
2022/08/17 07:41:03;;;;;;;7.78;5.25;;;21.90;99.90;;;;;;5026938;28;20511;-79
2022/08/17 07:43:39;;;;;;;6.07;4.97;;;21.90;99.90;;;;;;5012469;28;20049;-78
2022/08/17 07:49:02;;;;;;;11.80;6.32;;;22.10;99.90;;;;;;5012021;28;20167;-79
2022/08/17 07:51:34;;;;;;;7.78;5.80;;;22.10;99.90;;;;;;5027633;28;20401;-78
2022/08/17 07:54:02;;;;;;;8.88;5.53;;;22.20;99.90;;;;;;5026728;28;20060;-77
2022/08/17 07:56:46;;;;;;;8.77;5.55;;;22.30;99.90;;;;;;5026873;28;20040;-77
2022/08/17 07:59:17;;;;;;;7.50;6.07;;;22.40;99.90;;;;;;5025209;28;20390;-77
2022/08/17 08:02:02;;;;;;;8.98;5.15;;;22.50;99.90;;;;;;5010715;28;20037;-78
2022/08/17 08:04:42;;;;;;;7.22;5.22;;;22.50;99.90;;;;;;5011716;28;20022;-77
2022/08/17 08:07:19;;;;;;;9.63;5.30;;;22.60;99.90;;;;;;5027117;28;20072;-77
2022/08/17 08:09:59;;;;;;;11.68;6.40;;;22.70;99.90;;;;;;5012325;28;20034;-78
2022/08/17 08:12:36;;;;;;;6.47;5.40;;;22.80;99.90;;;;;;5010560;28;20088;-76
2022/08/17 08:15:18;;;;;;;11.43;6.00;;;22.90;99.90;;;;;;5025638;28;20037;-75
2022/08/17 08:17:51;;;;;;;6.68;5.60;;;23.00;99.90;;;;;;5011305;28;20494;-77
2022/08/17 08:20:17;;;;;;;7.53;5.13;;;23.10;99.90;;;;;;5011342;28;20032;-73
2022/08/17 08:23:05;;;;;;;8.13;5.47;;;23.20;99.90;;;;;;5009392;28;20129;-72
2022/08/17 08:25:58;;;;;;;;;;;23.30;99.90;;;;;;5024928;28;20094;-73
2022/08/17 08:28:32;;;;;;;7.68;4.55;;;23.50;99.90;;;;;;5009773;28;19909;-74
2022/08/17 08:31:40;;;;;;;9.65;4.15;;;23.60;99.90;;;;;;5025366;28;20251;-73
2022/08/17 08:34:27;;;;;;;4.75;3.72;;;23.80;99.90;;;;;;5010313;28;20061;-74
2022/08/17 08:37:26;;;;;;;5.97;4.22;;;23.90;99.90;;;;;;5024030;28;20185;-73
2022/08/17 08:39:57;;;;;;;;;;;24.10;99.90;;;;;;5011424;28;20033;-74
2022/08/17 08:42:51;;;;;;;9.23;4.30;;;24.30;99.90;;;;;;5010768;28;20367;-74
2022/08/17 08:45:41;;;;;;;6.88;4.07;;;24.50;99.90;;;;;;5006912;28;20045;-73
2022/08/17 08:48:55;;;;;;;6.97;3.60;;;24.60;99.90;;;;;;5023850;28;20555;-74
2022/08/17 08:51:49;;;;;;;6.60;3.65;;;24.80;99.90;;;;;;5021135;28;20030;-75
2022/08/17 08:54:48;;;;;;;5.05;3.80;;;24.90;99.90;;;;;;5010666;28;20033;-74
2022/08/17 08:57:35;;;;;;;7.40;3.33;;;25.00;99.90;;;;;;5010261;28;20036;-74
2022/08/17 09:00:18;;;;;;;8.60;3.90;;;25.10;99.90;;;;;;5025109;28;20034;-74
2022/08/17 09:03:39;;;;;;;10.45;3.53;;;25.10;99.90;;;;;;5022430;28;20025;-74
2022/08/17 09:06:28;;;;;;;5.13;3.60;;;25.20;99.90;;;;;;5025700;28;20126;-74
2022/08/17 09:09:05;;;;;;;5.80;3.65;;;25.40;99.90;;;;;;5025557;28;20030;-73
2022/08/17 09:12:00;;;;;;;;;;;25.60;99.90;;;;;;5011132;28;20037;-73
2022/08/17 09:14:39;;;;;;;4.93;2.78;;;25.70;99.90;;;;;;5008017;28;19976;-74
2022/08/17 09:17:39;;;;;;;3.83;2.83;;;25.90;97.90;;;;;;5023927;28;20037;-74
2022/08/17 09:20:23;;;;;;;5.50;2.78;;;25.90;99.90;;;;;;5022175;28;20049;-73
2022/08/17 09:23:13;;;;;;;4.53;2.75;;;26.00;98.50;;;;;;5007928;28;20588;-74
2022/08/17 09:25:57;;;;;;;7.82;3.25;;;26.10;97.70;;;;;;5025244;28;20044;-74
2022/08/17 09:28:34;;;;;;;6.47;3.42;;;26.20;98.30;;;;;;5024550;28;20397;-74
2022/08/17 09:31:07;;;;;;;5.00;2.78;;;26.30;96.00;;;;;;5025223;28;20080;-74
2022/08/17 09:33:36;;;;;;;6.93;3.15;;;26.40;95.00;;;;;;5023785;28;20507;-74
2022/08/17 09:36:05;;;;;;;7.05;2.88;;;26.50;95.40;;;;;;5024695;28;20085;-75
2022/08/17 09:38:39;;;;;;;4.50;2.53;;;26.70;94.50;;;;;;5008843;28;20034;-75
2022/08/17 09:41:15;;;;;;;4.63;3.00;;;26.70;94.40;;;;;;5024597;28;20053;-74
2022/08/17 09:44:05;;;;;;;3.63;3.33;;;26.70;96.70;;;;;;5024524;28;20505;-72
2022/08/17 09:46:36;;;;;;;4.50;3.28;;;26.70;99.10;;;;;;5023108;28;20394;-73
2022/08/17 09:49:18;;;;;;;4.78;2.90;;;26.70;93.20;;;;;;5024587;28;20485;-73
2022/08/17 09:51:48;;;;;;;5.78;3.00;;;26.80;91.80;;;;;;5023218;28;20034;-72
2022/08/17 09:54:32;;;;;;;5.38;2.60;;;27.00;90.40;;;;;;5024944;28;20055;-72
2022/08/17 09:57:49;;;;;;;3.55;2.50;;;27.10;90.80;;;;;;5023584;28;20042;-73
2022/08/17 10:00:27;;;;;;;7.40;3.88;;;27.20;91.10;;;;;;5025276;28;20029;-72
2022/08/17 10:03:18;;;;;;;5.30;2.72;;;27.30;90.20;;;;;;5024076;28;20030;-73
2022/08/17 10:05:51;;;;;;;12.30;3.05;;;27.30;89.20;;;;;;5003366;28;20030;-74
2022/08/17 10:08:31;;;;;;;10.73;3.80;;;27.40;90.10;;;;;;4989182;28;20026;-73
2022/08/17 10:11:21;;;;;;;6.43;3.22;;;27.40;91.10;;;;;;4993015;28;20122;-72
2022/08/17 10:13:58;;;;;;;6.07;3.40;;;27.40;91.50;;;;;;4992581;28;20038;-73
2022/08/17 10:16:36;;;;;;;3.63;2.75;;;27.40;90.50;;;;;;4992935;28;20076;-73
2022/08/17 10:19:07;;;;;;;4.35;2.95;;;27.50;90.00;;;;;;4992728;28;20033;-73
2022/08/17 10:28:05;;;;;;;7.10;3.50;;;27.60;91.70;;;;;;4960135;28;20027;-73
2022/08/17 10:30:32;;;;;;;7.63;3.70;;;27.70;90.40;;;;;;4955116;28;20503;-73
2022/08/17 10:33:06;;;;;;;4.35;3.67;;;27.80;88.70;;;;;;4963733;28;20310;-73
2022/08/17 10:35:43;;;;;;;5.95;4.03;;;27.80;89.60;;;;;;4995696;28;20025;-73
2022/08/17 10:38:35;;;;;;;4.65;3.00;;;27.90;90.30;;;;;;5028325;28;20098;-73
2022/08/17 10:41:23;;;;;;;3.50;3.20;;;28.00;83.50;;;;;;5028266;28;20594;-73
2022/08/17 10:44:22;;;;;;;3.72;3.42;;;28.20;87.10;;;;;;5027429;28;20454;-73
2022/08/17 10:47:02;;;;;;;6.13;3.60;;;28.30;84.10;;;;;;5019858;28;20038;-72
2022/08/17 10:49:46;;;;;;;6.18;3.33;;;28.40;86.40;;;;;;5028242;28;20032;-73
2022/08/17 10:52:27;;;;;;;4.40;3.33;;;28.60;85.90;;;;;;5025943;28;20091;-73
2022/08/17 10:54:55;;;;;;;5.78;4.15;;;28.80;88.10;;;;;;5012753;28;20034;-74
2022/08/17 10:57:32;;;;;;;6.40;3.38;;;28.80;88.50;;;;;;5012725;28;20036;-72
2022/08/17 11:00:00;;;;;;;4.75;3.47;;;28.80;86.10;;;;;;5013069;28;20596;-74
2022/08/17 11:02:51;;;;;;;6.82;3.28;;;28.80;85.70;;;;;;5027921;28;20041;-73
2022/08/17 11:05:53;;;;;;;7.00;3.50;;;28.80;86.10;;;;;;5024167;28;20046;-73
2022/08/17 11:09:08;;;;;;;4.82;3.05;;;28.80;87.20;;;;;;5027719;28;20042;-73
2022/08/17 11:11:46;;;;;;;7.30;3.90;;;28.90;86.10;;;;;;4994161;28;20673;-73
2022/08/17 11:14:50;;;;;;;5.05;3.30;;;28.90;83.90;;;;;;5027474;28;20037;-73
2022/08/17 11:17:43;;;;;;;3.97;3.03;;;28.90;89.00;;;;;;5012375;28;20034;-73
2022/08/17 11:21:14;;;;;;;9.25;3.75;;;29.00;90.50;;;;;;5011272;28;20030;-73
2022/08/17 11:23:52;;;;;;;4.57;3.55;;;29.10;85.20;;;;;;4990304;28;20026;-74
2022/08/17 11:26:28;;;;;;;4.53;3.20;;;29.20;84.80;;;;;;5012514;28;20030;-74
2022/08/17 11:29:00;;;;;;;5.90;4.13;;;29.30;88.70;;;;;;5027263;28;20108;-73
2022/08/17 11:31:41;;;;;;;3.90;3.50;;;29.40;90.60;;;;;;5027128;28;20137;-74
2022/08/17 11:34:17;;;;;;;3.47;3.22;;;29.40;90.00;;;;;;5025960;28;20520;-74
2022/08/17 11:37:19;;;;;;;4.03;3.40;;;29.50;89.20;;;;;;5025959;28;20108;-74
2022/08/17 11:40:15;;;;;;;5.18;3.83;;;29.60;89.70;;;;;;5027375;28;20449;-73
2022/08/17 11:43:08;;;;;;;7.57;3.83;;;29.90;90.00;;;;;;5011705;28;20029;-72
2022/08/17 11:45:45;;;;;;;6.72;3.75;;;30.10;86.90;;;;;;5011824;28;20030;-72
2022/08/17 11:53:53;;;;;;;6.22;3.08;;;;;;;;;;5011684;28;20069;-72
2022/08/17 11:56:40;;;;;;;6.45;2.95;;;31.00;90.60;;;;;;5011813;28;20042;-74
2022/08/17 11:59:31;;;;;;;4.30;3.22;;;;;;;;;;5011221;28;20161;-74
2022/08/17 12:02:01;;;;;;;5.35;3.33;;;31.70;86.70;;;;;;5011839;28;20137;-74
2022/08/17 12:04:32;;;;;;;6.75;3.90;;;31.30;83.90;;;;;;5026560;28;20033;-74
2022/08/17 12:07:17;;;;;;;3.67;3.25;;;31.30;82.50;;;;;;5024362;28;20026;-74
2022/08/17 12:09:44;;;;;;;3.58;3.17;;;31.40;84.30;;;;;;5010542;28;20022;-75
2022/08/17 12:12:18;;;;;;;4.25;3.47;;;31.60;85.40;;;;;;5026473;28;20033;-74
2022/08/17 12:14:56;;;;;;;3.80;3.28;;;31.80;87.90;;;;;;5025538;28;20030;-74
2022/08/17 12:17:27;;;;;;;5.63;3.40;;;;;;;;;;5025834;28;20034;-74
2022/08/17 12:19:55;;;;;;;8.02;4.00;;;;;;;;;;5025868;28;20615;-74
2022/08/17 12:22:34;;;;;;;5.38;3.22;;;;;;;;;;5026363;28;20038;-74
2022/08/17 12:25:11;;;;;;;7.22;3.47;;;;;;;;;;5009953;28;20045;-75
2022/08/17 12:27:45;;;;;;;5.70;3.20;;;;;;;;;;5011335;28;20241;-74
2022/08/17 12:30:14;;;;;;;5.40;3.40;;;;;;;;;;5011281;28;20108;-75
2022/08/17 12:32:41;;;;;;;6.07;3.08;;;;;;;;;;5010550;28;20092;-74
2022/08/17 12:35:37;;;;;;;4.15;3.10;;;;;;;;;;5026470;28;20128;-74
2022/08/17 12:38:09;;;;;;;6.57;3.55;;;;;;;;;;5001624;28;20108;-74
2022/08/17 12:40:35;;;;;;;4.70;3.20;;;;;;;;;;5025741;28;20112;-74
2022/08/17 12:43:17;;;;;;;4.47;3.40;;;;;;;;;;5026239;28;20397;-74
2022/08/17 12:45:45;;;;;;;4.95;3.33;;;;;;;;;;5024650;28;20057;-74
2022/08/17 12:48:15;;;;;;;7.13;3.45;;;;;;;;;;5010997;28;20478;-74
2022/08/17 12:50:43;;;;;;;5.10;3.30;;;;;;;;;;5025600;28;20037;-74
2022/08/17 12:53:14;;;;;;;5.25;2.75;;;;;;;;;;5010037;28;20397;-74
2022/08/17 12:55:43;;;;;;;3.47;2.78;;;;;;;;;;5025992;28;20029;-74
2022/08/17 12:58:16;;;;;;;6.85;3.20;;;;;;;;;;5010900;28;20088;-74
2022/08/17 13:00:47;;;;;;;4.75;3.03;;;;;;;;;;5025321;28;20111;-74
2022/08/17 13:03:18;;;;;;;5.82;3.28;;;;;;;;;;5025379;28;20486;-74
2022/08/17 13:06:05;;;;;;;7.07;3.13;;;;;;;;;;5025740;28;20030;-74
2022/08/17 13:08:41;;;;;;;5.50;3.33;;;;;;;;;;5024706;28;20032;-74
2022/08/17 13:11:13;;;;;;;4.82;3.35;;;;;;;;;;5010929;28;20036;-74
2022/08/17 13:13:41;;;;;;;3.75;3.30;;;;;;;;;;5025316;28;20739;-75
2022/08/17 13:16:13;;;;;;;3.13;2.78;;;;;;;;;;5025614;28;20148;-74
2022/08/17 13:18:43;;;;;;;8.20;3.45;;;;;;;;;;5010861;28;20057;-74
2022/08/17 13:21:22;;;;;;;5.95;3.80;;;;;;;;;;5010622;28;20084;-74
2022/08/17 13:24:18;;;;;;;5.88;3.38;;;;;;;;;;5010228;28;20034;-73
2022/08/17 13:26:49;;;;;;;4.00;3.33;;;;;;;;;;5025508;28;20433;-75
2022/08/17 13:29:26;;;;;;;4.20;3.22;;;;;;;;;;5025591;28;20365;-74
2022/08/17 13:31:57;;;;;;;5.47;3.22;;;;;;;;;;5010672;28;20041;-74
2022/08/17 13:34:26;;;;;;;6.35;3.33;;;;;;;;;;5025141;28;20034;-74
2022/08/17 13:37:12;;;;;;;4.57;3.55;;;;;;;;;;5009136;28;20037;-74
2022/08/17 13:39:43;;;;;;;7.22;3.47;;;;;;;;;;5011186;28;20026;-73
2022/08/17 13:42:40;;;;;;;4.53;3.22;;;;;;;;;;5011115;28;20030;-74
2022/08/17 13:45:30;;;;;;;4.30;3.45;;;;;;;;;;5014883;28;20037;-74
2022/08/17 13:48:10;;;;;;;4.82;3.17;;;;;;;;;;5014994;28;20038;-74
2022/08/17 13:50:38;;;;;;;3.30;2.95;;;;;;;;;;5014998;28;20040;-73
2022/08/17 13:53:25;;;;;;;6.07;3.75;;;;;;;;;;5029329;28;20574;-74
2022/08/17 13:55:53;;;;;;;3.90;3.47;;;;;;;;;;5014796;28;20459;-74
2022/08/17 13:58:25;;;;;;;4.15;3.67;;;;;;;;;;5014412;28;20718;-77
2022/08/17 14:00:52;;;;;;;5.97;3.42;;;;;;;;;;5016443;28;20041;-74
2022/08/17 14:03:19;;;;;;;3.92;3.42;;;;;;;;;;5029584;28;20057;-74
2022/08/17 14:05:46;;;;;;;6.50;3.05;;;;;;;;;;5014570;28;20061;-74
2022/08/17 14:08:13;;;;;;;7.78;4.00;;;;;;;;;;5029361;28;20030;-74
2022/08/17 14:10:40;;;;;;;4.72;3.22;;;;;;;;;;5030224;28;20102;-74